Weather reports worldwide

Advertisment
Otranto, Italy (16334): temperature & dewpoint: 18.03.2019 17:00:00 - 24.03.2019 17:00:00 (CET)Otranto, Italy (16334): wind speed: 18.03.2019 17:00:00 - 24.03.2019 17:00:00 (CET)Otranto, Italy (16334): wind direction: 18.03.2019 17:00:00 - 24.03.2019 17:00:00 (CET)Otranto, Italy (16334): reduced air pressure: 18.03.2019 17:00:00 - 24.03.2019 17:00:00 (CET)
Date & Time tt [°C] td [°C] ff [km/h] ff [kn] dd ppp [hPa]
24.03.2019 17:00:00 - - - - - -
24.03.2019 16:00:00 17,0 15,3 21 11 N 1018,3
24.03.2019 15:00:00 17,6 15,7 22 12 N 1018,4
24.03.2019 14:00:00 17,6 15,7 18 10 NNW 1019,0
24.03.2019 13:00:00 17,3 15,8 28 15 NNW 1019,5
24.03.2019 12:00:00 17,7 17,0 22 12 N 1019,8
24.03.2019 11:00:00 17,2 15,8 24 13 N 1019,8
24.03.2019 10:00:00 16,9 16,2 24 13 N 1019,9
24.03.2019 09:00:00 16,4 15,4 22 12 NNW 1019,7
24.03.2019 08:00:00 15,3 15,2 21 11 NNW 1019,5
24.03.2019 07:00:00 13,5 13,4 21 11 NNW 1019,2
24.03.2019 06:00:00 12,7 12,7 22 12 NNW 1018,8
24.03.2019 05:00:00 12,1 12,1 22 12 NW 1018,6
24.03.2019 04:00:00 12,1 12,1 21 11 NNW 1018,6
24.03.2019 03:00:00 12,0 12,0 22 12 NNW 1018,7
24.03.2019 02:00:00 12,1 12,1 16 9 NNW 1019,2
24.03.2019 01:00:00 11,7 11,7 18 10 N 1019,4
24.03.2019 00:00:00 12,2 12,2 21 11 NW 1019,6
23.03.2019 23:00:00 12,4 12,4 18 10 NNW 1019,8
23.03.2019 22:00:00 12,5 12,5 18 10 NNW 1019,8
23.03.2019 21:00:00 12,8 11,8 15 8 NW 1019,9
23.03.2019 20:00:00 13,4 12,4 16 9 NNW 1019,8
23.03.2019 19:00:00 13,8 12,7 16 9 NNW 1019,2
23.03.2019 18:00:00 15,0 13,3 18 10 NNW 1019,0
23.03.2019 17:00:00 16,0 14,1 26 14 N 1018,9
23.03.2019 16:00:00 16,9 15,0 26 14 NNW 1018,6
23.03.2019 15:00:00 18,3 14,7 18 10 N 1018,8
23.03.2019 14:00:00 18,1 15,1 22 12 N 1018,9
23.03.2019 13:00:00 17,4 14,6 21 11 NNW 1019,6
23.03.2019 12:00:00 17,8 16,9 13 7 N 1019,9
23.03.2019 11:00:00 16,4 15,5 16 9 N 1020,2
23.03.2019 10:00:00 16,2 16,0 15 8 N 1020,6
23.03.2019 09:00:00 15,7 15,6 13 7 N 1020,5
23.03.2019 08:00:00 14,5 14,4 16 9 N 1020,5
23.03.2019 07:00:00 12,8 12,8 16 9 NNW 1020,6
23.03.2019 06:00:00 12,4 12,4 16 9 NNW 1020,5
23.03.2019 05:00:00 12,4 12,4 16 9 N 1020,5
23.03.2019 04:00:00 12,5 12,5 18 10 NNW 1020,5
23.03.2019 03:00:00 12,5 12,5 21 11 NNW 1020,6
23.03.2019 02:00:00 12,6 12,6 18 10 NNW 1021,2
23.03.2019 01:00:00 12,8 12,8 21 11 NNW 1021,5
23.03.2019 00:00:00 12,6 12,6 18 10 NNW 1021,6
22.03.2019 23:00:00 12,6 12,6 21 11 NNW 1021,8
22.03.2019 22:00:00 12,8 12,8 21 11 NNW 1022,3
22.03.2019 21:00:00 12,9 12,8 21 11 NNW 1022,6
22.03.2019 20:00:00 13,3 13,2 18 10 N 1022,7
22.03.2019 19:00:00 13,6 13,5 21 11 NNW 1022,6
22.03.2019 18:00:00 14,6 13,9 21 11 N 1022,3
22.03.2019 17:00:00 15,9 14,2 26 14 NNE 1022,3
22.03.2019 16:00:00 16,9 15,2 21 11 N 1022,4
22.03.2019 15:00:00 17,2 14,9 24 13 NNE 1022,7
22.03.2019 14:00:00 17,4 16,5 18 10 N 1022,9
22.03.2019 13:00:00 17,8 15,9 13 7 N 1023,5
22.03.2019 12:00:00 17,5 15,6 13 7 N 1024,1
22.03.2019 11:00:00 17,1 15,2 13 7 N 1024,3
22.03.2019 10:00:00 17,0 16,1 11 6 N 1024,5
22.03.2019 09:00:00 16,1 16,0 8 4 N 1024,5
22.03.2019 08:00:00 13,7 13,6 4 2 NW 1024,7
22.03.2019 07:00:00 12,0 12,0 4 2 NW 1024,7
22.03.2019 06:00:00 12,4 12,4 4 2 N 1024,3
22.03.2019 05:00:00 11,3 11,3 4 2 NNW 1024,2
22.03.2019 04:00:00 11,6 11,6 4 2 NW 1023,9
22.03.2019 03:00:00 12,0 12,0 9 5 NNW 1024,0
22.03.2019 02:00:00 12,3 12,3 11 6 NW 1024,0
22.03.2019 01:00:00 12,6 12,6 13 7 NNW 1024,2
22.03.2019 00:00:00 12,8 12,8 15 8 NNW 1024,0
21.03.2019 23:00:00 13,2 13,1 18 10 NW 1023,9
21.03.2019 22:00:00 13,7 13,6 21 11 NNW 1023,9
21.03.2019 21:00:00 14,1 14,0 22 12 NNW 1023,5
21.03.2019 20:00:00 14,4 14,3 24 13 NW 1023,1
21.03.2019 19:00:00 14,2 14,1 22 12 NW 1022,6
21.03.2019 18:00:00 15,8 15,1 18 10 NNW 1022,3
21.03.2019 17:00:00 17,8 16,2 13 7 NNW 1021,9
21.03.2019 16:00:00 17,7 16,8 15 8 N 1022,0
21.03.2019 15:00:00 17,8 16,6 15 8 N 1022,1
21.03.2019 14:00:00 17,5 16,3 16 9 N 1022,5
21.03.2019 13:00:00 17,3 16,1 21 11 N 1023,2
21.03.2019 12:00:00 17,7 16,8 21 11 N 1023,3
21.03.2019 11:00:00 17,4 16,2 18 10 N 1023,3
21.03.2019 10:00:00 17,4 16,2 16 9 N 1023,4
21.03.2019 09:00:00 16,2 15,8 21 11 NNW 1023,3
21.03.2019 08:00:00 14,7 14,6 18 10 NNW 1023,1
21.03.2019 07:00:00 13,0 12,9 18 10 NNW 1022,8
21.03.2019 06:00:00 13,0 12,9 16 9 NNW 1022,4
21.03.2019 05:00:00 13,0 12,9 22 12 NNW 1022,0
21.03.2019 04:00:00 13,3 13,2 26 14 N 1021,9
21.03.2019 03:00:00 12,9 12,8 24 13 NNW 1021,8
21.03.2019 02:00:00 12,9 12,8 24 13 NNW 1022,4
21.03.2019 01:00:00 13,1 13,0 29 16 N 1022,6
21.03.2019 00:00:00 12,7 12,7 24 13 NNW 1022,6
20.03.2019 23:00:00 12,7 12,7 28 15 NW 1022,5
20.03.2019 22:00:00 12,8 12,8 26 14 N 1022,4
20.03.2019 21:00:00 12,8 12,8 29 16 N 1022,1
20.03.2019 20:00:00 13,0 12,9 34 18 N 1021,9
20.03.2019 19:00:00 13,1 13,0 29 16 N 1021,6
20.03.2019 18:00:00 13,3 13,2 29 16 NNW 1021,4
20.03.2019 17:00:00 13,7 13,6 29 16 N 1020,8
20.03.2019 16:00:00 14,5 13,5 34 18 N 1020,3
20.03.2019 15:00:00 14,9 13,9 31 17 N 1020,1
20.03.2019 14:00:00 15,7 14,7 31 17 N 1020,2
20.03.2019 13:00:00 14,9 14,8 31 17 NNW 1020,5
20.03.2019 12:00:00 15,7 15,6 31 17 NNW 1020,7
20.03.2019 11:00:00 15,2 15,1 28 15 NW 1020,8
20.03.2019 10:00:00 14,7 14,6 24 13 N 1020,5
20.03.2019 09:00:00 13,8 13,7 26 14 N 1020,3
20.03.2019 08:00:00 13,7 13,6 21 11 N 1020,2
20.03.2019 07:00:00 13,0 12,9 22 12 N 1019,8
20.03.2019 06:00:00 12,2 12,2 18 10 N 1019,2
20.03.2019 05:00:00 11,6 11,6 15 8 NNW 1019,2
20.03.2019 04:00:00 11,6 11,6 15 8 NNW 1019,3
20.03.2019 03:00:00 11,6 11,6 11 6 NNW 1019,4
20.03.2019 02:00:00 11,4 11,4 8 4 N 1019,5
20.03.2019 01:00:00 11,6 11,6 8 4 NNW 1019,5
20.03.2019 00:00:00 11,5 11,5 8 4 NNW 1019,3
19.03.2019 23:00:00 12,1 12,1 4 2 NNW 1019,3
19.03.2019 22:00:00 12,7 12,7 0 0 N 1019,1
19.03.2019 21:00:00 13,0 12,9 0 0 N 1018,6
19.03.2019 20:00:00 13,6 13,5 2 1 E 1018,2
19.03.2019 19:00:00 13,7 13,6 2 1 S 1017,7
19.03.2019 18:00:00 15,0 14,9 4 2 S 1017,1
19.03.2019 17:00:00 16,2 16,1 5 3 SE 1016,4
19.03.2019 16:00:00 16,4 16,2 9 5 S 1016,3
19.03.2019 15:00:00 17,2 17,1 9 5 ESE 1016,2
19.03.2019 14:00:00 16,8 16,4 16 9 SE 1016,5
19.03.2019 13:00:00 17,1 17,0 15 8 S 1016,7
19.03.2019 12:00:00 17,3 17,2 16 9 SSE 1016,8
19.03.2019 11:00:00 16,3 16,2 16 9 SE 1016,7
19.03.2019 10:00:00 15,7 15,6 13 7 S 1016,9
19.03.2019 09:00:00 15,1 15,0 11 6 SE 1016,9
19.03.2019 08:00:00 15,1 15,0 13 7 SE 1016,2
19.03.2019 07:00:00 13,7 13,6 11 6 SSE 1016,2
19.03.2019 06:00:00 13,5 13,4 11 6 SE 1015,6
19.03.2019 05:00:00 14,0 13,9 15 8 SSE 1015,6
19.03.2019 04:00:00 14,1 14,0 18 10 SE 1015,2
19.03.2019 03:00:00 14,0 13,9 18 10 SSE 1015,3
19.03.2019 02:00:00 13,9 13,8 24 13 SSE 1015,4
19.03.2019 01:00:00 13,9 13,8 22 12 S 1015,9
19.03.2019 00:00:00 14,0 13,9 21 11 SSE 1016,0
18.03.2019 23:00:00 14,0 13,9 24 13 S 1015,9
18.03.2019 22:00:00 14,1 14,0 24 13 S 1016,1
18.03.2019 21:00:00 14,1 14,0 22 12 S 1016,0
18.03.2019 20:00:00 14,2 14,1 26 14 S 1015,5
18.03.2019 19:00:00 14,2 14,1 26 14 S 1015,2
18.03.2019 18:00:00 14,5 14,4 24 13 SSE 1014,9
18.03.2019 17:00:00 15,2 15,1 26 14 SSE 1014,8

tt = temperature
td = dewpoint
ff = wind speed
dd = wind direction
ppp = reduced air pressure

Next stations